Аэропорт: Стригино. Нижний Новгород

ICAO: UWGG

METAR:
2019/05/26 14:00
UWGG 261400Z 16002MPS 9999 -RA BKN015 14/13 Q1007 R18L/290050 NOSIG
METAR:
2019/05/26 12:21
TAF UWGG 261058Z 2612/2712 18003MPS 9999 BKN015 TX17/2615Z TN12/2703Z 
      TEMPO 2612/2621 16005G10MPS 4000 -SHRA BKN011CB PROB40 
      TEMPO 2612/2706 -TSRA BKN011CB